createdAt,value
2019-01-16T00:00:42.325Z,67.20
2019-01-16T00:03:29.767Z,67.90
2019-01-16T00:06:17.286Z,68.00
2019-01-16T00:09:13.613Z,70.00
2019-01-16T00:12:01.157Z,71.30
2019-01-16T00:15:00.565Z,72.80
2019-01-16T00:17:37.146Z,73.20
2019-01-16T00:20:35.754Z,73.20
2019-01-16T00:23:22.406Z,73.50
2019-01-16T00:26:09.911Z,73.70
2019-01-16T00:28:55.847Z,73.60
2019-01-16T00:31:33.642Z,74.10
2019-01-16T00:34:28.843Z,74.60
2019-01-16T00:37:14.693Z,74.50
2019-01-16T00:40:17.268Z,74.90
2019-01-16T00:43:01.882Z,75.40
2019-01-16T00:45:47.955Z,74.90
2019-01-16T00:48:29.347Z,74.90
2019-01-16T00:51:15.272Z,75.30
2019-01-16T00:54:11.409Z,75.00
2019-01-16T00:57:04.868Z,74.20
2019-01-16T01:00:07.533Z,74.10
2019-01-16T01:02:47.025Z,74.10
2019-01-16T01:05:24.537Z,73.80
2019-01-16T01:08:15.077Z,73.90
2019-01-16T01:11:00.105Z,73.90
2019-01-16T01:13:47.647Z,74.40
2019-01-16T01:16:40.855Z,74.40
2019-01-16T01:19:28.317Z,73.70
2019-01-16T01:22:18.816Z,73.70
2019-01-16T01:25:04.688Z,74.00
2019-01-16T01:28:06.825Z,74.30
2019-01-16T01:30:52.530Z,75.40
2019-01-16T01:33:40.020Z,75.30
2019-01-16T01:36:33.397Z,74.20
2019-01-16T01:39:19.390Z,73.60
2019-01-16T01:42:05.487Z,73.70
2019-01-16T01:45:01.546Z,73.50
2019-01-16T01:48:03.902Z,73.40
2019-01-16T01:50:51.410Z,72.10
2019-01-16T01:53:32.669Z,72.90
2019-01-16T01:56:20.176Z,72.50
2019-01-16T01:59:06.431Z,72.50
2019-01-16T02:02:06.074Z,72.40
2019-01-16T02:04:51.998Z,73.40
2019-01-16T02:07:38.156Z,73.10
2019-01-16T02:10:41.812Z,71.40
2019-01-16T02:13:25.745Z,70.90
2019-01-16T02:16:19.100Z,71.70
2019-01-16T02:19:04.979Z,71.20
2019-01-16T02:21:46.325Z,71.00
2019-01-16T02:24:41.105Z,70.40
2019-01-16T02:27:19.773Z,71.00
2019-01-16T02:30:00.492Z,70.70
2019-01-16T02:32:38.262Z,71.00
2019-01-16T02:35:24.361Z,71.00
2019-01-16T02:38:05.504Z,70.80
2019-01-16T02:40:55.769Z,70.50
2019-01-16T02:43:52.060Z,71.00
2019-01-16T02:46:40.010Z,70.40
2019-01-16T02:49:39.631Z,71.10
2019-01-16T02:52:20.014Z,71.50
2019-01-16T02:55:05.946Z,72.20
2019-01-16T02:57:56.451Z,71.80
2019-01-16T03:00:40.905Z,71.50
2019-01-16T03:03:18.035Z,71.30
2019-01-16T03:06:05.513Z,70.80
2019-01-16T03:08:51.778Z,70.60
2019-01-16T03:11:47.484Z,71.10
2019-01-16T03:14:33.116Z,70.20
2019-01-16T03:17:09.836Z,70.40
2019-01-16T03:19:57.716Z,70.10
2019-01-16T03:22:43.463Z,70.30
2019-01-16T03:25:29.531Z,71.40
2019-01-16T03:28:07.027Z,71.00
2019-01-16T03:30:57.504Z,71.90
2019-01-16T03:33:35.658Z,71.70
2019-01-16T03:36:29.478Z,70.90
2019-01-16T03:39:28.627Z,70.30
2019-01-16T03:42:21.978Z,70.60
2019-01-16T03:44:55.708Z,69.40
2019-01-16T03:47:41.400Z,69.50
2019-01-16T03:50:26.342Z,69.60
2019-01-16T03:53:12.332Z,69.70
2019-01-16T03:56:17.978Z,69.20
2019-01-16T03:59:11.588Z,68.80
2019-01-16T04:01:54.691Z,68.10
2019-01-16T04:04:48.667Z,67.90
2019-01-16T04:07:36.125Z,67.30
2019-01-16T04:10:27.181Z,67.00
2019-01-16T04:13:14.788Z,67.00
2019-01-16T04:16:02.432Z,66.00
2019-01-16T04:18:56.425Z,66.00
2019-01-16T04:21:39.251Z,65.50
2019-01-16T04:24:14.064Z,65.60
2019-01-16T04:27:04.389Z,65.40
2019-01-16T04:29:50.588Z,64.40
2019-01-16T04:32:38.142Z,64.30
2019-01-16T04:35:43.907Z,64.70
2019-01-16T04:38:24.772Z,63.50
2019-01-16T04:41:22.929Z,63.00
2019-01-16T04:44:25.469Z,63.30
2019-01-16T04:47:12.944Z,63.20
2019-01-16T04:49:51.932Z,62.70
2019-01-16T04:52:45.597Z,63.20
2019-01-16T04:55:32.837Z,63.10
2019-01-16T04:58:20.327Z,62.50
2019-01-16T05:01:05.484Z,63.40
2019-01-16T05:03:56.195Z,62.40
2019-01-16T05:06:40.099Z,62.30
2019-01-16T05:09:25.936Z,62.10
2019-01-16T05:12:18.918Z,60.80
2019-01-16T05:15:09.051Z,60.40
2019-01-16T05:17:59.363Z,59.80
2019-01-16T05:20:49.295Z,59.40
2019-01-16T05:23:45.523Z,58.70
2019-01-16T05:26:27.914Z,59.40
2019-01-16T05:29:09.818Z,58.80
2019-01-16T05:31:50.323Z,58.30
2019-01-16T05:34:37.782Z,57.00
2019-01-16T05:37:28.230Z,57.00
2019-01-16T05:40:06.422Z,56.70
2019-01-16T05:42:59.664Z,57.30
2019-01-16T05:45:42.099Z,57.80
2019-01-16T05:48:28.155Z,58.30
2019-01-16T05:51:05.676Z,58.60
2019-01-16T05:53:51.350Z,58.20
2019-01-16T05:56:33.358Z,58.10
2019-01-16T05:59:36.095Z,58.00
2019-01-16T06:02:29.179Z,58.10
2019-01-16T06:05:25.421Z,57.80
2019-01-16T06:08:04.700Z,58.90
2019-01-16T06:10:48.941Z,58.40
2019-01-16T06:13:34.812Z,58.00
2019-01-16T06:16:25.511Z,57.80
2019-01-16T06:19:15.879Z,56.80
2019-01-16T06:22:03.411Z,56.40
2019-01-16T06:24:48.970Z,56.00
2019-01-16T06:27:32.520Z,56.90
2019-01-16T06:30:08.020Z,58.30
2019-01-16T06:32:49.832Z,58.70
2019-01-16T06:35:35.852Z,57.60
2019-01-16T06:38:26.448Z,57.60
2019-01-16T06:41:19.757Z,57.60
2019-01-16T06:44:22.012Z,57.90
2019-01-16T06:47:08.283Z,57.10
2019-01-16T06:49:42.286Z,57.00
2019-01-16T06:52:24.130Z,56.50
2019-01-16T06:55:20.460Z,56.70
2019-01-16T06:57:58.322Z,57.50
2019-01-16T07:00:42.047Z,56.50
2019-01-16T07:03:32.199Z,55.90
2019-01-16T07:06:35.072Z,56.90
2019-01-16T07:09:28.546Z,58.40
2019-01-16T07:12:16.028Z,59.70
2019-01-16T07:15:07.199Z,60.50
2019-01-16T07:17:50.454Z,60.30
2019-01-16T07:20:36.524Z,60.00
2019-01-16T07:23:29.839Z,60.00
2019-01-16T07:26:15.658Z,60.00
2019-01-16T07:29:03.187Z,60.20
2019-01-16T07:32:02.694Z,59.70
2019-01-16T07:34:48.759Z,60.00
2019-01-16T07:37:34.983Z,58.70
2019-01-16T07:40:23.565Z,58.90
2019-01-16T07:43:07.571Z,59.20
2019-01-16T07:45:55.384Z,59.60
2019-01-16T07:48:43.243Z,59.20
2019-01-16T07:51:40.807Z,59.10
2019-01-16T07:54:25.443Z,59.10
2019-01-16T07:57:30.926Z,58.80
2019-01-16T08:00:13.376Z,59.20
2019-01-16T08:02:51.753Z,58.90
2019-01-16T08:05:37.889Z,59.20
2019-01-16T08:08:25.576Z,59.40
2019-01-16T08:11:19.936Z,59.70
2019-01-16T08:14:19.074Z,59.90
2019-01-16T08:17:05.068Z,60.40
2019-01-16T08:19:55.481Z,60.40
2019-01-16T08:22:34.759Z,61.00
2019-01-16T08:25:26.679Z,60.70
2019-01-16T08:28:26.302Z,61.30
2019-01-16T08:31:01.876Z,61.40
2019-01-16T08:34:04.603Z,60.90
2019-01-16T08:36:58.477Z,61.50
2019-01-16T08:40:03.891Z,60.50
2019-01-16T08:43:00.609Z,60.70
2019-01-16T08:45:59.811Z,60.40
2019-01-16T08:48:47.380Z,60.60
2019-01-16T08:51:33.729Z,60.80
2019-01-16T08:54:30.311Z,60.60
2019-01-16T08:57:13.904Z,60.40
2019-01-16T08:59:59.550Z,60.50
2019-01-16T09:02:56.319Z,60.30
2019-01-16T09:05:43.267Z,60.10
2019-01-16T09:08:24.724Z,59.70
2019-01-16T09:11:10.900Z,60.40
2019-01-16T09:13:49.977Z,60.00
2019-01-16T09:16:37.091Z,60.30
2019-01-16T09:19:15.495Z,60.40
2019-01-16T09:22:15.226Z,60.40
2019-01-16T09:25:14.653Z,60.10
2019-01-16T09:28:00.742Z,60.30
2019-01-16T09:30:39.345Z,60.70
2019-01-16T09:33:29.713Z,60.60
2019-01-16T09:36:08.841Z,60.60
2019-01-16T09:38:54.739Z,59.80
2019-01-16T09:41:40.817Z,60.10
2019-01-16T09:44:18.928Z,59.90
2019-01-16T09:47:04.629Z,60.30
2019-01-16T09:49:55.190Z,59.70
2019-01-16T09:52:44.771Z,60.00
2019-01-16T09:55:29.850Z,60.10
2019-01-16T09:58:23.194Z,59.80
2019-01-16T10:01:13.988Z,60.30
2019-01-16T10:03:54.878Z,60.10
2019-01-16T10:06:44.855Z,60.30
2019-01-16T10:09:31.156Z,59.90
2019-01-16T10:12:12.541Z,60.40
2019-01-16T10:15:00.268Z,60.30
2019-01-16T10:17:46.499Z,60.00
2019-01-16T10:20:24.905Z,60.00
2019-01-16T10:23:15.382Z,59.30
2019-01-16T10:26:02.983Z,58.60
2019-01-16T10:28:50.602Z,59.40
2019-01-16T10:31:38.121Z,59.70
2019-01-16T10:34:24.391Z,59.10
2019-01-16T10:37:10.423Z,59.10
2019-01-16T10:39:56.099Z,59.50
2019-01-16T10:42:43.810Z,59.10
2019-01-16T10:45:28.652Z,59.00
2019-01-16T10:48:17.178Z,58.40
2019-01-16T10:50:53.217Z,58.90
2019-01-16T10:53:52.288Z,57.70
2019-01-16T10:56:32.193Z,58.30
2019-01-16T10:59:22.731Z,57.60
2019-01-16T11:02:08.996Z,57.30
2019-01-16T11:04:56.429Z,57.40
2019-01-16T11:07:42.450Z,57.60
2019-01-16T11:10:34.067Z,57.30
2019-01-16T11:13:29.231Z,57.60
2019-01-16T11:16:21.544Z,58.30
2019-01-16T11:19:07.461Z,58.10
2019-01-16T11:21:53.087Z,57.60
2019-01-16T11:24:58.926Z,57.40
2019-01-16T11:27:58.303Z,58.00
2019-01-16T11:30:46.663Z,58.10
2019-01-16T11:33:27.033Z,58.10
2019-01-16T11:36:29.786Z,58.30
2019-01-16T11:39:32.097Z,58.10
2019-01-16T11:42:19.630Z,58.30
2019-01-16T11:45:03.356Z,58.20
2019-01-16T11:50:26.734Z,57.50
2019-01-16T11:53:12.213Z,57.20
2019-01-16T11:55:57.791Z,57.60
2019-01-16T11:58:36.781Z,58.10
2019-01-16T12:01:16.422Z,57.10
2019-01-16T12:04:02.586Z,57.80
2019-01-16T12:06:55.745Z,57.20
2019-01-16T12:10:01.500Z,57.20
2019-01-16T12:12:49.233Z,57.30
2019-01-16T12:15:36.141Z,56.80
2019-01-16T12:18:32.429Z,56.90
2019-01-16T12:21:35.280Z,56.30
2019-01-16T12:24:27.202Z,56.20
2019-01-16T12:27:13.485Z,56.60
2019-01-16T12:29:54.916Z,55.50
2019-01-16T12:32:45.524Z,56.60
2019-01-16T12:35:26.680Z,55.80
2019-01-16T12:38:17.162Z,54.80
2019-01-16T12:41:03.256Z,54.90
2019-01-16T12:43:50.898Z,54.70
2019-01-16T12:46:34.188Z,54.70
2019-01-16T12:49:20.285Z,54.60
2019-01-16T12:52:08.763Z,54.20
2019-01-16T12:54:54.854Z,55.10
2019-01-16T12:57:57.060Z,55.00
2019-01-16T13:00:43.729Z,54.90
2019-01-16T13:03:30.086Z,55.00
2019-01-16T13:06:26.769Z,55.30
2019-01-16T13:09:11.682Z,55.20
2019-01-16T13:12:03.598Z,55.00
2019-01-16T13:15:00.225Z,54.30
2019-01-16T13:17:56.527Z,54.80
2019-01-16T13:20:42.114Z,55.10
2019-01-16T13:23:32.865Z,55.10
2019-01-16T13:26:18.846Z,54.30
2019-01-16T13:29:05.161Z,54.70
2019-01-16T13:31:55.739Z,54.30
2019-01-16T13:34:43.348Z,54.50
2019-01-16T13:37:28.216Z,54.20
2019-01-16T13:40:27.695Z,54.40
2019-01-16T13:43:04.803Z,54.80
2019-01-16T13:46:01.202Z,54.40
2019-01-16T13:48:52.756Z,54.10
2019-01-16T13:51:29.933Z,53.50
2019-01-16T13:54:21.002Z,54.10
2019-01-16T13:57:03.449Z,54.50
2019-01-16T13:59:53.965Z,53.90
2019-01-16T14:02:47.557Z,53.50
2019-01-16T14:05:24.620Z,54.20
2019-01-16T14:08:01.158Z,53.90
2019-01-16T14:10:46.942Z,54.10
2019-01-16T14:13:40.556Z,54.30
2019-01-16T14:16:37.116Z,54.40
2019-01-16T14:19:39.571Z,54.60
2019-01-16T14:22:30.194Z,54.70
2019-01-16T14:25:15.410Z,55.30
2019-01-16T14:28:02.016Z,55.20
2019-01-16T14:30:53.482Z,55.80
2019-01-16T14:33:53.097Z,56.10
2019-01-16T14:36:43.783Z,56.30
2019-01-16T14:39:23.389Z,56.40
2019-01-16T14:42:22.810Z,57.00
2019-01-16T14:45:13.583Z,57.30
2019-01-16T14:48:04.231Z,57.60
2019-01-16T14:50:52.728Z,57.60
2019-01-16T14:53:52.435Z,58.40
2019-01-16T14:56:46.311Z,58.80
2019-01-16T14:59:36.956Z,59.00
2019-01-16T15:02:42.949Z,59.60
2019-01-16T15:05:29.676Z,59.70
2019-01-16T15:08:14.213Z,59.70
2019-01-16T15:11:10.600Z,59.00
2019-01-16T15:13:58.284Z,59.40
2019-01-16T15:17:04.807Z,59.40
2019-01-16T15:20:01.194Z,60.30
2019-01-16T15:22:54.557Z,59.50
2019-01-16T15:25:40.505Z,59.50
2019-01-16T15:28:26.310Z,59.80
2019-01-16T15:31:16.990Z,60.00
2019-01-16T15:33:59.763Z,60.50
2019-01-16T15:36:41.384Z,60.60
2019-01-16T15:39:31.323Z,60.30
2019-01-16T15:42:21.871Z,60.60
2019-01-16T15:45:10.676Z,60.60
2019-01-16T15:47:57.457Z,61.00
2019-01-16T15:50:45.270Z,61.00
2019-01-16T15:53:39.484Z,61.20
2019-01-16T15:56:39.857Z,61.40
2019-01-16T15:59:22.014Z,61.70
2019-01-16T16:02:03.566Z,61.60
2019-01-16T16:04:51.179Z,62.10
2019-01-16T16:07:37.303Z,60.60
2019-01-16T16:10:45.387Z,59.80
2019-01-16T16:13:27.221Z,59.40
2019-01-16T16:16:10.749Z,58.60
2019-01-16T16:18:57.161Z,58.50
2019-01-16T16:21:40.319Z,58.30
2019-01-16T16:24:20.986Z,58.30
2019-01-16T16:27:06.941Z,57.60
2019-01-16T16:29:57.475Z,57.80
2019-01-16T16:32:43.683Z,57.70
2019-01-16T16:35:43.736Z,57.60
2019-01-16T16:38:24.938Z,57.30
2019-01-16T16:41:27.931Z,57.30
2019-01-16T16:44:05.930Z,56.40
2019-01-16T16:46:51.965Z,56.20
2019-01-16T16:49:28.809Z,56.30
2019-01-16T16:52:12.754Z,56.20
2019-01-16T16:55:07.678Z,56.40
2019-01-16T16:57:52.022Z,55.70
2019-01-16T17:00:48.329Z,55.90
2019-01-16T17:03:44.779Z,55.90
2019-01-16T17:06:26.517Z,56.00
2019-01-16T17:09:09.067Z,55.80
2019-01-16T17:11:51.570Z,55.70
2019-01-16T17:14:30.701Z,55.90
2019-01-16T17:17:25.110Z,55.10
2019-01-16T17:20:18.798Z,55.10
2019-01-16T17:22:58.877Z,54.70
2019-01-16T17:25:45.024Z,55.10
2019-01-16T17:28:27.671Z,55.20
2019-01-16T17:31:27.468Z,54.70
2019-01-16T17:34:16.617Z,54.50
2019-01-16T17:37:04.313Z,54.50
2019-01-16T17:39:51.823Z,54.20
2019-01-16T17:42:30.277Z,54.90
2019-01-16T17:45:20.869Z,55.00
2019-01-16T17:48:06.895Z,54.90
2019-01-16T17:50:52.709Z,55.10
2019-01-16T17:53:58.229Z,55.10
2019-01-16T17:56:44.257Z,55.10
2019-01-16T17:59:37.481Z,55.50
2019-01-16T18:02:25.113Z,55.80
2019-01-16T18:05:18.799Z,55.70
2019-01-16T18:08:02.833Z,55.70
2019-01-16T18:10:46.216Z,55.70
2019-01-16T18:13:39.900Z,55.70
2019-01-16T18:16:32.415Z,55.60
2019-01-16T18:19:20.422Z,55.90
2019-01-16T18:21:59.664Z,55.90
2019-01-16T18:24:47.392Z,55.90
2019-01-16T18:27:54.136Z,55.90
2019-01-16T18:30:42.124Z,56.00
2019-01-16T18:33:30.271Z,56.00
2019-01-16T18:36:16.730Z,55.40
2019-01-16T18:39:06.252Z,56.20
2019-01-16T18:42:12.085Z,56.50
2019-01-16T18:45:02.738Z,57.10
2019-01-16T18:48:08.448Z,57.00
2019-01-16T18:51:01.717Z,57.00
2019-01-16T18:53:42.556Z,57.00
2019-01-16T18:56:38.566Z,57.00
2019-01-16T18:59:29.173Z,57.80
2019-01-16T19:02:29.018Z,58.00
2019-01-16T19:05:22.703Z,57.60
2019-01-16T19:08:10.691Z,58.10
2019-01-16T19:10:46.262Z,58.00
2019-01-16T19:13:32.410Z,57.90
2019-01-16T19:16:17.439Z,57.30
2019-01-16T19:18:59.011Z,56.90
2019-01-16T19:21:40.399Z,57.30
2019-01-16T19:24:26.579Z,57.00
2019-01-16T19:27:12.600Z,57.00
2019-01-16T19:30:03.114Z,56.60
2019-01-16T19:32:49.443Z,56.50
2019-01-16T19:35:40.037Z,57.00
2019-01-16T19:38:21.533Z,56.80
2019-01-16T19:41:12.213Z,56.90
2019-01-16T19:44:05.745Z,56.90
2019-01-16T19:46:58.794Z,56.90
2019-01-16T19:49:48.328Z,57.00
2019-01-16T19:52:36.572Z,57.00
2019-01-16T19:55:25.434Z,57.10
2019-01-16T19:58:11.443Z,57.00
2019-01-16T20:01:03.859Z,56.90
2019-01-16T20:03:51.668Z,57.10
2019-01-16T20:06:32.203Z,56.90
2019-01-16T20:09:28.995Z,56.80
2019-01-16T20:12:15.265Z,56.90
2019-01-16T20:15:21.873Z,56.70
2019-01-16T20:18:16.798Z,56.10
2019-01-16T20:21:03.970Z,56.40
2019-01-16T20:24:02.024Z,56.50
2019-01-16T20:27:01.857Z,56.30
2019-01-16T20:29:48.163Z,56.30
2019-01-16T20:32:50.559Z,56.20
2019-01-16T20:35:56.588Z,56.10
2019-01-16T20:38:45.945Z,55.90
2019-01-16T20:41:31.655Z,56.30
2019-01-16T20:44:22.162Z,55.80
2019-01-16T20:46:59.321Z,56.20
2019-01-16T20:49:50.572Z,56.20
2019-01-16T20:52:41.215Z,56.90
2019-01-16T20:55:45.975Z,56.80
2019-01-16T20:58:42.245Z,56.90
2019-01-16T21:01:32.519Z,56.80
2019-01-16T21:04:16.809Z,56.90
2019-01-16T21:07:01.637Z,55.90
2019-01-16T21:09:44.137Z,55.20
2019-01-16T21:12:19.831Z,55.30
2019-01-16T21:15:13.247Z,55.00
2019-01-16T21:17:55.144Z,55.90
2019-01-16T21:20:45.727Z,55.30
2019-01-16T21:23:33.666Z,55.20
2019-01-16T21:26:24.305Z,55.10
2019-01-16T21:29:30.058Z,54.70
2019-01-16T21:32:06.650Z,54.40
2019-01-16T21:34:45.833Z,54.30
2019-01-16T21:37:33.563Z,54.10
2019-01-16T21:40:36.254Z,53.70
2019-01-16T21:43:22.597Z,54.20
2019-01-16T21:46:08.633Z,53.80
2019-01-16T21:48:54.848Z,53.80
2019-01-16T21:51:42.553Z,54.00
2019-01-16T21:54:20.784Z,53.90
2019-01-16T21:57:08.450Z,53.70
2019-01-16T21:59:50.303Z,54.20
2019-01-16T22:02:40.950Z,54.40
2019-01-16T22:05:20.950Z,54.20
2019-01-16T22:08:08.548Z,55.00
2019-01-16T22:10:55.987Z,54.80
2019-01-16T22:13:44.345Z,55.10
2019-01-16T22:16:43.969Z,55.00
2019-01-16T22:19:34.350Z,55.10
2019-01-16T22:22:24.992Z,55.10
2019-01-16T22:25:07.952Z,54.50
2019-01-16T22:28:01.385Z,55.00
2019-01-16T22:30:38.408Z,55.20
2019-01-16T22:33:13.603Z,56.20
2019-01-16T22:36:04.681Z,56.70
2019-01-16T22:38:57.556Z,56.90
2019-01-16T22:41:34.517Z,56.70
2019-01-16T22:44:22.477Z,56.30
2019-01-16T22:47:04.347Z,56.30
2019-01-16T22:49:50.039Z,55.70
2019-01-16T22:52:37.598Z,56.00
2019-01-16T22:55:23.649Z,55.20
2019-01-16T22:58:25.831Z,55.60
2019-01-16T23:01:29.921Z,56.10
2019-01-16T23:04:20.056Z,55.90
2019-01-16T23:06:57.644Z,55.20
2019-01-16T23:09:42.871Z,55.30
2019-01-16T23:12:48.377Z,55.90
2019-01-16T23:15:33.336Z,55.70
2019-01-16T23:18:18.737Z,55.80
2019-01-16T23:21:17.914Z,56.10
2019-01-16T23:24:05.677Z,56.10
2019-01-16T23:26:59.134Z,56.20
2019-01-16T23:29:50.318Z,56.10
2019-01-16T23:32:48.069Z,56.00
2019-01-16T23:35:50.672Z,55.60
2019-01-16T23:38:56.286Z,55.70
2019-01-16T23:41:43.372Z,55.90
2019-01-16T23:44:46.192Z,55.40
2019-01-16T23:47:32.333Z,55.40
2019-01-16T23:50:25.698Z,54.70
2019-01-16T23:53:08.110Z,54.30
2019-01-16T23:55:54.056Z,54.40
2019-01-16T23:58:53.757Z,54.60
